Barrancas, Argentina
Current Conditions -  °F | °C
As of 4:00 AM on Sunday 26 Oct 2014 (Local Time) from SAAR Reporting Station
Clear Clear  
Wind Chill: 21°   Ceiling: Unl
Heat Index: 21°   Visibility: 6mi
Dew Point: 18°   Wind: 5mph
Humidity: 83%   Direction: 50°NE
Pressure: 29.8"   Gusts: NA
Location:  32.23°S, 60.98°W
Report Text: SAAR 260700Z 05004KT CAVOK 21/18 Q1009
Loading
Personal Weather Stations






























Interactive Weather Map
Tropical Storm Tracking
New forecast layout! Learn more

10-Day Weather Forecast

Advertisements
Track Severe Weather on mobile